sensor_id;sensor_type;location;lat;lon;timestamp;P1;durP1;ratioP1;P2;durP2;ratioP2
51479;SDS011;37556;44.570;18.612;2023-03-01T09:37:33;9.05;;;4.50;;
51479;SDS011;37556;44.570;18.612;2023-03-01T09:40:00;7.72;;;7.00;;
51479;SDS011;37556;44.570;18.612;2023-03-01T09:44:56;5.75;;;5.22;;
51479;SDS011;37556;44.570;18.612;2023-03-01T09:47:24;6.32;;;3.97;;
51479;SDS011;37556;44.570;18.612;2023-03-01T09:49:57;7.75;;;5.30;;
51479;SDS011;37556;44.570;18.612;2023-03-01T09:54:56;4.75;;;3.75;;
51479;SDS011;37556;44.570;18.612;2023-03-01T09:57:45;3.95;;;3.72;;
51479;SDS011;37556;44.570;18.612;2023-03-01T10:00:14;6.78;;;5.85;;
51479;SDS011;37556;44.570;18.612;2023-03-01T10:02:49;6.40;;;4.20;;
51479;SDS011;37556;44.570;18.612;2023-03-01T10:10:39;8.00;;;4.20;;
51479;SDS011;37556;44.570;18.612;2023-03-01T10:13:14;4.57;;;3.60;;
51479;SDS011;37556;44.570;18.612;2023-03-01T10:15:43;7.95;;;3.92;;
51479;SDS011;37556;44.570;18.612;2023-03-01T10:18:12;7.85;;;4.38;;
51479;SDS011;37556;44.570;18.612;2023-03-01T10:20:44;2.55;;;2.35;;
51479;SDS011;37556;44.570;18.612;2023-03-01T10:23:12;7.10;;;3.90;;
51479;SDS011;37556;44.570;18.612;2023-03-01T10:28:47;6.93;;;5.85;;
51479;SDS011;37556;44.570;18.612;2023-03-01T10:30:53;7.07;;;3.92;;
51479;SDS011;37556;44.570;18.612;2023-03-01T10:33:20;4.45;;;3.50;;
51479;SDS011;37556;44.570;18.612;2023-03-01T10:35:48;4.03;;;3.78;;
51479;SDS011;37556;44.570;18.612;2023-03-01T10:38:15;2.50;;;1.55;;
51479;SDS011;37556;44.570;18.612;2023-03-01T10:40:55;3.63;;;3.35;;
51479;SDS011;37556;44.570;18.612;2023-03-01T10:43:23;3.78;;;3.55;;
51479;SDS011;37556;44.570;18.612;2023-03-01T10:45:49;7.68;;;4.68;;
51479;SDS011;37556;44.570;18.612;2023-03-01T10:48:23;10.57;;;3.63;;
51479;SDS011;37556;44.570;18.612;2023-03-01T10:51:14;9.13;;;3.95;;
51479;SDS011;37556;44.570;18.612;2023-03-01T10:53:41;3.75;;;3.45;;
51479;SDS011;37556;44.570;18.612;2023-03-01T10:56:08;6.15;;;3.03;;
51479;SDS011;37556;44.570;18.612;2023-03-01T10:58:36;2.72;;;2.28;;
51479;SDS011;37556;44.570;18.612;2023-03-01T11:01:04;3.83;;;2.88;;
51479;SDS011;37556;44.570;18.612;2023-03-01T11:03:37;4.57;;;3.80;;
51479;SDS011;37556;44.570;18.612;2023-03-01T11:08:43;7.40;;;5.10;;
51479;SDS011;37556;44.570;18.612;2023-03-01T11:11:23;3.88;;;2.83;;
51479;SDS011;37556;44.570;18.612;2023-03-01T11:16:38;8.60;;;2.97;;
51479;SDS011;37556;44.570;18.612;2023-03-01T11:22:20;7.38;;;3.78;;
51479;SDS011;37556;44.570;18.612;2023-03-01T11:24:22;7.10;;;4.28;;
51479;SDS011;37556;44.570;18.612;2023-03-01T11:26:51;6.03;;;3.60;;
51479;SDS011;37556;44.570;18.612;2023-03-01T11:29:38;7.20;;;2.75;;
51479;SDS011;37556;44.570;18.612;2023-03-01T11:32:07;5.28;;;4.43;;
51479;SDS011;37556;44.570;18.612;2023-03-01T11:37:05;3.65;;;3.00;;
51479;SDS011;37556;44.570;18.612;2023-03-01T11:39:37;6.68;;;5.25;;
51479;SDS011;37556;44.570;18.612;2023-03-01T11:42:06;4.18;;;3.88;;
51479;SDS011;37556;44.570;18.612;2023-03-01T11:44:36;5.28;;;4.60;;
51479;SDS011;37556;44.570;18.612;2023-03-01T11:52:00;9.38;;;7.75;;
51479;SDS011;37556;44.570;18.612;2023-03-01T11:54:30;8.77;;;7.88;;
51479;SDS011;37556;44.570;18.612;2023-03-01T11:57:11;4.03;;;3.20;;
51479;SDS011;37556;44.570;18.612;2023-03-01T12:15:39;4.18;;;3.67;;
51479;SDS011;37556;44.570;18.612;2023-03-01T12:31:16;7.57;;;6.75;;
51479;SDS011;37556;44.570;18.612;2023-03-01T12:49:08;14.93;;;7.45;;
51479;SDS011;37556;44.570;18.612;2023-03-01T12:51:37;6.60;;;5.25;;
51479;SDS011;37556;44.570;18.612;2023-03-01T12:54:11;22.65;;;9.68;;
51479;SDS011;37556;44.570;18.612;2023-03-01T12:56:40;8.80;;;4.97;;
51479;SDS011;37556;44.570;18.612;2023-03-01T13:06:50;29.58;;;7.05;;
51479;SDS011;37556;44.570;18.612;2023-03-01T13:11:56;8.02;;;6.35;;
51479;SDS011;37556;44.570;18.612;2023-03-01T13:16:51;14.00;;;10.23;;
51479;SDS011;37556;44.570;18.612;2023-03-01T13:19:18;9.38;;;6.50;;
51479;SDS011;37556;44.570;18.612;2023-03-01T13:21:45;5.50;;;5.00;;
51479;SDS011;37556;44.570;18.612;2023-03-01T13:29:48;6.68;;;5.10;;
51479;SDS011;37556;44.570;18.612;2023-03-01T13:32:24;8.60;;;7.65;;
51479;SDS011;37556;44.570;18.612;2023-03-01T13:34:57;13.80;;;8.45;;
51479;SDS011;37556;44.570;18.612;2023-03-01T13:37:27;12.60;;;7.25;;
51479;SDS011;37556;44.570;18.612;2023-03-01T13:39:55;14.02;;;9.07;;
51479;SDS011;37556;44.570;18.612;2023-03-01T13:42:33;4.28;;;3.88;;
51479;SDS011;37556;44.570;18.612;2023-03-01T13:45:01;10.48;;;5.65;;
51479;SDS011;37556;44.570;18.612;2023-03-01T13:47:28;9.68;;;5.82;;
51479;SDS011;37556;44.570;18.612;2023-03-01T13:54:57;12.20;;;4.97;;
51479;SDS011;37556;44.570;18.612;2023-03-01T13:59:50;8.05;;;7.18;;
51479;SDS011;37556;44.570;18.612;2023-03-01T14:02:16;6.72;;;6.13;;
51479;SDS011;37556;44.570;18.612;2023-03-01T14:04:42;4.53;;;4.10;;
51479;SDS011;37556;44.570;18.612;2023-03-01T14:07:18;7.20;;;6.70;;
51479;SDS011;37556;44.570;18.612;2023-03-01T14:09:45;14.75;;;7.82;;
51479;SDS011;37556;44.570;18.612;2023-03-01T14:20:00;8.85;;;7.07;;
51479;SDS011;37556;44.570;18.612;2023-03-01T14:22:30;10.27;;;6.95;;
51479;SDS011;37556;44.570;18.612;2023-03-01T14:24:58;12.88;;;7.10;;
51479;SDS011;37556;44.570;18.612;2023-03-01T14:27:30;24.10;;;10.70;;
51479;SDS011;37556;44.570;18.612;2023-03-01T14:30:02;9.07;;;8.25;;
51479;SDS011;37556;44.570;18.612;2023-03-01T14:32:31;19.48;;;11.05;;
51479;SDS011;37556;44.570;18.612;2023-03-01T14:34:58;11.25;;;6.90;;
51479;SDS011;37556;44.570;18.612;2023-03-01T14:37:25;16.10;;;9.82;;
51479;SDS011;37556;44.570;18.612;2023-03-01T14:39:52;13.23;;;10.05;;
51479;SDS011;37556;44.570;18.612;2023-03-01T14:42:19;14.60;;;6.68;;
51479;SDS011;37556;44.570;18.612;2023-03-01T14:44:47;17.13;;;11.05;;
51479;SDS011;37556;44.570;18.612;2023-03-01T14:47:35;23.65;;;10.13;;
51479;SDS011;37556;44.570;18.612;2023-03-01T14:52:34;27.05;;;15.40;;
51479;SDS011;37556;44.570;18.612;2023-03-01T14:55:02;18.30;;;10.50;;
51479;SDS011;37556;44.570;18.612;2023-03-01T14:57:28;20.35;;;9.73;;
51479;SDS011;37556;44.570;18.612;2023-03-01T14:59:55;19.05;;;9.55;;
51479;SDS011;37556;44.570;18.612;2023-03-01T15:02:24;35.08;;;12.10;;
